createdAt,value
2022-12-13T00:01:51.012Z,-1.49
2022-12-13T00:04:23.232Z,-1.52
2022-12-13T00:06:54.832Z,-1.58
2022-12-13T00:09:26.689Z,-1.55
2022-12-13T00:11:58.562Z,-1.48
2022-12-13T00:14:30.135Z,-1.54
2022-12-13T00:17:02.089Z,-1.49
2022-12-13T00:19:33.654Z,-1.52
2022-12-13T00:22:05.512Z,-1.56
2022-12-13T00:24:40.208Z,-1.52
2022-12-13T00:27:16.225Z,-1.54
2022-12-13T00:29:47.742Z,-1.52
2022-12-13T00:32:19.662Z,-1.46
2022-12-13T00:34:51.185Z,-1.58
2022-12-13T00:37:23.049Z,-1.52
2022-12-13T00:39:54.574Z,-1.50
2022-12-13T00:42:26.537Z,-1.52
2022-12-13T00:44:58.042Z,-1.57
2022-12-13T00:47:30.841Z,-1.63
2022-12-13T00:50:02.348Z,-1.60
2022-12-13T00:52:34.206Z,-1.66
2022-12-13T00:55:05.710Z,-1.57
2022-12-13T00:57:37.634Z,-1.58
2022-12-13T01:00:09.138Z,-1.63
2022-12-13T01:02:42.126Z,-1.66
2022-12-13T01:05:13.782Z,-1.64
2022-12-13T01:07:45.958Z,-1.62
2022-12-13T01:10:17.702Z,-1.64
2022-12-13T01:12:49.501Z,-1.60
2022-12-13T01:15:20.989Z,-1.61
2022-12-13T01:17:52.848Z,-1.61
2022-12-13T01:20:24.356Z,-1.57
2022-12-13T01:22:56.189Z,-1.62
2022-12-13T01:25:27.690Z,-1.60
2022-12-13T01:27:59.640Z,-1.62
2022-12-13T01:30:31.172Z,-1.55
2022-12-13T01:33:03.069Z,-1.67
2022-12-13T01:35:45.894Z,-1.61
2022-12-13T01:38:17.499Z,-1.69
2022-12-13T01:40:49.010Z,-1.76
2022-12-13T01:43:21.000Z,-1.67
2022-12-13T01:45:52.924Z,-1.62
2022-12-13T01:48:24.782Z,-1.62
2022-12-13T01:50:56.298Z,-1.59
2022-12-13T01:53:28.072Z,-1.58
2022-12-13T01:55:59.582Z,-1.62
2022-12-13T01:58:31.403Z,-1.55
2022-12-13T02:01:02.935Z,-1.61
2022-12-13T02:03:34.817Z,-1.64
2022-12-13T02:06:06.314Z,-1.62
2022-12-13T02:08:38.221Z,-1.63
2022-12-13T02:11:09.856Z,-1.59
2022-12-13T02:13:42.629Z,-1.63
2022-12-13T02:16:14.278Z,-1.66
2022-12-13T02:18:54.377Z,-1.71
2022-12-13T02:21:25.887Z,-1.75
2022-12-13T02:23:57.732Z,-1.73
2022-12-13T02:26:29.220Z,-1.82
2022-12-13T02:29:01.042Z,-1.83
2022-12-13T02:31:32.642Z,-1.81
2022-12-13T02:34:04.712Z,-1.74
2022-12-13T02:36:37.053Z,-1.90
2022-12-13T02:39:08.923Z,-1.84
2022-12-13T02:41:40.490Z,-1.77
2022-12-13T02:44:12.944Z,-1.91
2022-12-13T02:46:53.582Z,-1.91
2022-12-13T02:49:25.376Z,-1.84
2022-12-13T02:51:56.906Z,-1.81
2022-12-13T02:54:28.783Z,-1.85
2022-12-13T02:57:00.275Z,-1.75
2022-12-13T02:59:32.095Z,-1.82
2022-12-13T03:02:09.681Z,-1.70
2022-12-13T03:05:02.504Z,-1.77
2022-12-13T03:07:34.001Z,-1.82
2022-12-13T03:10:05.857Z,-1.77
2022-12-13T03:12:56.249Z,-1.75
2022-12-13T03:15:27.731Z,-1.74
2022-12-13T03:18:00.004Z,-1.80
2022-12-13T03:20:31.511Z,-1.77
2022-12-13T03:23:03.470Z,-1.91
2022-12-13T03:25:34.964Z,-1.92
2022-12-13T03:28:06.800Z,-1.77
2022-12-13T03:30:38.284Z,-1.78
2022-12-13T03:33:09.771Z,-1.80
2022-12-13T03:35:44.462Z,-1.86
2022-12-13T03:38:23.027Z,-1.76
2022-12-13T03:40:54.908Z,-1.81
2022-12-13T03:43:26.712Z,-1.80
2022-12-13T03:45:58.279Z,-1.75
2022-12-13T03:48:29.801Z,-1.77
2022-12-13T03:51:01.357Z,-1.81
2022-12-13T03:53:34.605Z,-3.76
2022-12-13T03:56:06.281Z,-1.77
2022-12-13T03:58:38.522Z,-1.72
2022-12-13T04:01:10.079Z,-1.69
2022-12-13T04:03:41.940Z,-1.77
2022-12-13T04:06:13.448Z,-1.71
2022-12-13T04:08:54.870Z,-1.77
2022-12-13T04:11:45.260Z,-1.78
2022-12-13T04:14:22.644Z,-1.73
2022-12-13T04:16:54.559Z,-1.78
2022-12-13T04:19:26.061Z,-1.79
2022-12-13T04:21:57.556Z,-1.68
2022-12-13T04:24:31.855Z,-1.68
2022-12-13T04:27:03.699Z,-1.84
2022-12-13T04:29:35.473Z,-1.84
2022-12-13T04:32:26.006Z,-1.78
2022-12-13T04:35:01.128Z,-1.85
2022-12-13T04:37:33.253Z,-1.80
2022-12-13T04:40:05.646Z,-1.78
2022-12-13T04:42:37.147Z,-1.70
2022-12-13T04:45:09.039Z,-1.63
2022-12-13T04:47:40.530Z,-1.71
2022-12-13T04:50:14.070Z,-1.76
2022-12-13T04:52:45.626Z,-1.68
2022-12-13T04:55:17.278Z,-1.73
2022-12-13T04:57:49.380Z,-1.85
2022-12-13T05:00:22.772Z,-1.73
2022-12-13T05:02:54.349Z,-1.74
2022-12-13T05:05:26.329Z,-1.79
2022-12-13T05:07:57.917Z,-1.84
2022-12-13T05:10:35.665Z,-1.63
2022-12-13T05:13:09.551Z,-1.73
2022-12-13T05:15:41.063Z,-1.66
2022-12-13T05:18:12.601Z,-1.68
2022-12-13T05:20:44.109Z,-1.84
2022-12-13T05:23:22.861Z,-1.73
2022-12-13T05:25:54.588Z,-1.68
2022-12-13T05:28:29.056Z,-1.75
2022-12-13T05:31:00.757Z,-1.74
2022-12-13T05:33:32.334Z,-1.70
2022-12-13T05:36:04.727Z,-1.72
2022-12-13T05:38:36.927Z,-1.73
2022-12-13T05:41:08.425Z,-1.73
2022-12-13T05:43:42.077Z,-1.77
2022-12-13T05:46:15.054Z,-1.75
2022-12-13T05:48:46.634Z,-1.79
2022-12-13T05:51:18.146Z,-1.95
2022-12-13T05:53:53.227Z,-1.94
2022-12-13T05:56:25.075Z,-1.88
2022-12-13T05:58:56.766Z,-1.92
2022-12-13T06:01:28.399Z,-1.90
2022-12-13T06:04:00.334Z,-1.99
2022-12-13T06:06:31.905Z,-1.96
2022-12-13T06:09:04.157Z,-1.94
2022-12-13T06:11:35.739Z,-1.99
2022-12-13T06:14:22.767Z,-1.98
2022-12-13T06:16:54.841Z,-1.95
2022-12-13T06:19:26.957Z,-2.02
2022-12-13T06:21:58.459Z,-2.04
2022-12-13T06:24:30.023Z,-2.17
2022-12-13T06:27:01.518Z,-2.07
2022-12-13T06:29:33.428Z,-2.08
2022-12-13T06:32:05.016Z,-2.21
2022-12-13T06:34:36.850Z,-2.16
2022-12-13T06:37:08.386Z,-2.29
2022-12-13T06:39:40.575Z,-2.29
2022-12-13T06:42:12.431Z,-2.36
2022-12-13T06:44:55.721Z,-2.28
2022-12-13T06:47:31.489Z,-2.19
2022-12-13T06:50:04.930Z,-2.16
2022-12-13T06:52:37.805Z,-2.06
2022-12-13T06:55:09.337Z,-2.00
2022-12-13T06:57:41.360Z,-2.03
2022-12-13T07:00:13.288Z,-1.97
2022-12-13T07:02:44.945Z,-2.05
2022-12-13T07:05:17.018Z,-2.04
2022-12-13T07:07:48.549Z,-2.09
2022-12-13T07:10:22.156Z,-2.02
2022-12-13T07:12:54.336Z,-1.99
2022-12-13T07:15:26.269Z,-1.97
2022-12-13T07:17:57.849Z,-2.00
2022-12-13T07:20:29.496Z,-2.11
2022-12-13T07:23:01.000Z,-2.03
2022-12-13T07:25:33.025Z,-3.13
2022-12-13T07:28:04.563Z,-1.98
2022-12-13T07:30:41.029Z,-2.03
2022-12-13T07:33:13.265Z,-2.04
2022-12-13T07:35:55.326Z,-2.02
2022-12-13T07:38:27.164Z,-1.95
2022-12-13T07:40:59.080Z,-2.00
2022-12-13T07:43:30.601Z,-1.95
2022-12-13T07:46:02.639Z,-1.88
2022-12-13T07:48:34.171Z,-1.89
2022-12-13T07:51:05.990Z,-1.79
2022-12-13T07:53:37.492Z,-1.69
2022-12-13T07:56:09.387Z,-1.62
2022-12-13T07:58:42.167Z,-1.70
2022-12-13T08:01:13.954Z,-1.69
2022-12-13T08:03:46.502Z,-1.83
2022-12-13T08:06:20.332Z,-1.69
2022-12-13T08:08:51.840Z,-1.64
2022-12-13T08:11:23.694Z,-1.71
2022-12-13T08:13:55.193Z,-1.73
2022-12-13T08:16:29.661Z,-1.70
2022-12-13T08:19:04.382Z,-1.82
2022-12-13T08:24:28.531Z,-1.80
2022-12-13T08:27:03.421Z,-1.72
2022-12-13T08:29:36.240Z,-1.62
2022-12-13T08:32:07.956Z,-1.84
2022-12-13T08:34:39.908Z,-1.81
2022-12-13T08:37:11.482Z,-1.84
2022-12-13T08:39:44.867Z,-1.66
2022-12-13T08:42:19.286Z,-1.46
2022-12-13T08:44:52.445Z,-1.34
2022-12-13T08:47:25.824Z,-1.41
2022-12-13T08:50:03.938Z,-1.36
2022-12-13T08:52:39.251Z,-1.22
2022-12-13T08:55:12.973Z,-1.31
2022-12-13T08:57:44.592Z,-1.24
2022-12-13T09:00:16.426Z,-1.27
2022-12-13T09:02:48.046Z,-1.31
2022-12-13T09:05:33.417Z,-1.11
2022-12-13T09:08:24.179Z,-1.18
2022-12-13T09:10:59.211Z,-0.96
2022-12-13T09:13:32.666Z,-0.88
2022-12-13T09:16:05.915Z,-0.99
2022-12-13T09:18:46.291Z,-1.16
2022-12-13T09:21:31.252Z,-1.04
2022-12-13T09:24:03.494Z,-0.74
2022-12-13T09:26:38.298Z,-0.79
2022-12-13T09:29:11.025Z,-0.65
2022-12-13T09:31:47.081Z,-0.85
2022-12-13T09:34:22.652Z,-0.48
2022-12-13T09:36:54.173Z,-0.53
2022-12-13T09:39:32.774Z,-0.56
2022-12-13T09:42:10.585Z,-0.59
2022-12-13T09:44:42.351Z,-0.51
2022-12-13T09:47:23.444Z,-0.22
2022-12-13T09:49:56.596Z,-0.50
2022-12-13T09:52:35.644Z,-0.53
2022-12-13T09:55:10.855Z,-0.28
2022-12-13T09:57:42.531Z,-0.52
2022-12-13T10:00:14.477Z,-0.36
2022-12-13T10:02:46.053Z,-0.17
2022-12-13T10:05:22.898Z,-0.50
2022-12-13T10:07:56.161Z,-0.62
2022-12-13T10:10:27.978Z,-0.33
2022-12-13T10:12:59.551Z,-0.29
2022-12-13T10:15:31.398Z,-0.24
2022-12-13T10:18:02.899Z,-0.11
2022-12-13T10:20:34.773Z,-0.50
2022-12-13T10:23:33.187Z,-0.27
2022-12-13T10:26:03.331Z,-0.60
2022-12-13T10:28:35.174Z,-0.60
2022-12-13T10:31:06.987Z,-0.72
2022-12-13T10:33:38.479Z,-0.79
2022-12-13T10:36:10.066Z,-0.58
2022-12-13T10:38:41.648Z,-0.51
2022-12-13T10:41:13.457Z,-0.60
2022-12-13T10:43:45.039Z,-0.46
2022-12-13T10:46:16.904Z,-0.24
2022-12-13T10:48:56.954Z,-0.17
2022-12-13T10:51:28.825Z,-0.18
2022-12-13T10:54:00.735Z,-0.04
2022-12-13T10:56:32.635Z,0.03
2022-12-13T10:59:04.135Z,0.25
2022-12-13T11:01:35.764Z,0.14
2022-12-13T11:04:07.333Z,0.11
2022-12-13T11:06:38.902Z,0.39
2022-12-13T11:09:23.089Z,0.19
2022-12-13T11:11:58.811Z,0.38
2022-12-13T11:14:32.305Z,-0.01
2022-12-13T11:17:04.447Z,0.24
2022-12-13T11:19:36.029Z,0.02
2022-12-13T11:22:07.895Z,0.01
2022-12-13T11:24:39.376Z,-0.17
2022-12-13T11:27:11.313Z,-0.20
2022-12-13T11:29:43.043Z,0.03
2022-12-13T11:32:23.055Z,0.28
2022-12-13T11:34:54.730Z,0.47
2022-12-13T11:37:26.904Z,0.48
2022-12-13T11:40:01.892Z,0.57
2022-12-13T11:42:33.930Z,0.50
2022-12-13T11:45:06.838Z,0.47
2022-12-13T11:47:38.781Z,0.76
2022-12-13T11:50:10.267Z,0.84
2022-12-13T11:52:41.768Z,0.85
2022-12-13T11:55:13.264Z,0.83
2022-12-13T11:57:45.151Z,0.77
2022-12-13T12:00:17.002Z,0.98
2022-12-13T12:03:06.511Z,0.63
2022-12-13T12:05:38.366Z,0.56
2022-12-13T12:11:01.415Z,0.51
2022-12-13T12:13:33.466Z,0.46
2022-12-13T12:16:06.301Z,0.42
2022-12-13T12:18:37.794Z,0.40
2022-12-13T12:21:09.708Z,0.35
2022-12-13T12:23:46.216Z,0.14
2022-12-13T12:26:20.315Z,-0.01
2022-12-13T12:28:51.818Z,-0.14
2022-12-13T12:31:23.753Z,-0.08
2022-12-13T12:33:55.867Z,-0.05
2022-12-13T12:36:27.686Z,-0.06
2022-12-13T12:38:59.192Z,-0.01
2022-12-13T12:41:30.987Z,0.21
2022-12-13T12:44:02.524Z,0.06
2022-12-13T12:46:47.186Z,-0.14
2022-12-13T12:49:25.834Z,-0.31
2022-12-13T12:51:57.740Z,-0.17
2022-12-13T12:54:32.531Z,-0.12
2022-12-13T12:57:05.229Z,-0.17
2022-12-13T12:59:36.753Z,-0.17
2022-12-13T13:02:09.315Z,-0.27
2022-12-13T13:04:42.384Z,-0.16
2022-12-13T13:07:23.391Z,-0.22
2022-12-13T13:09:55.561Z,-0.24
2022-12-13T13:12:29.579Z,-0.37
2022-12-13T13:15:02.269Z,-0.53
2022-12-13T13:17:34.261Z,-0.67
2022-12-13T13:20:11.924Z,-0.65
2022-12-13T13:22:50.058Z,-0.55
2022-12-13T13:25:31.063Z,-0.58
2022-12-13T13:28:02.881Z,-0.69
2022-12-13T13:30:34.446Z,-0.49
2022-12-13T13:33:06.386Z,-0.53
2022-12-13T13:35:38.289Z,-0.72
2022-12-13T13:38:09.805Z,-0.68
2022-12-13T13:40:41.645Z,-0.91
2022-12-13T13:43:13.822Z,-0.78
2022-12-13T13:45:45.668Z,-0.80
2022-12-13T13:48:17.219Z,-0.85
2022-12-13T13:50:49.080Z,-0.89
2022-12-13T13:53:20.605Z,-0.76
2022-12-13T13:55:53.071Z,-0.73
2022-12-13T13:58:25.359Z,-0.69
2022-12-13T14:00:57.206Z,-0.76
2022-12-13T14:03:34.291Z,-0.79
2022-12-13T14:06:06.880Z,-1.13
2022-12-13T14:08:38.398Z,-0.99
2022-12-13T14:11:10.689Z,-0.88
2022-12-13T14:13:45.090Z,-0.80
2022-12-13T14:16:20.797Z,-0.76
2022-12-13T14:18:53.516Z,-0.81
2022-12-13T14:21:25.341Z,-0.78
2022-12-13T14:23:56.842Z,-0.74
2022-12-13T14:26:29.171Z,-0.77
2022-12-13T14:29:00.742Z,-0.87
2022-12-13T14:31:32.821Z,-0.89
2022-12-13T14:34:04.411Z,-0.96
2022-12-13T14:36:36.746Z,-0.95
2022-12-13T14:39:24.593Z,-0.93
2022-12-13T14:41:57.479Z,-0.99
2022-12-13T14:44:29.196Z,-0.96
2022-12-13T14:47:01.119Z,-1.18
2022-12-13T14:49:32.777Z,-1.04
2022-12-13T14:52:04.625Z,-0.96
2022-12-13T14:54:36.160Z,-0.98
2022-12-13T14:57:07.761Z,-1.10
2022-12-13T14:59:39.252Z,-1.18
2022-12-13T15:02:10.790Z,-1.18
2022-12-13T15:04:42.333Z,-1.18
2022-12-13T15:07:14.356Z,-1.20
2022-12-13T15:09:46.047Z,-1.16
2022-12-13T15:12:24.283Z,-1.21
2022-12-13T15:14:57.107Z,-1.32
2022-12-13T15:17:28.629Z,-1.31
2022-12-13T15:20:00.526Z,-1.36
2022-12-13T15:22:32.564Z,-1.35
2022-12-13T15:25:04.067Z,-1.31
2022-12-13T15:27:35.887Z,-1.30
2022-12-13T15:30:07.402Z,-1.26
2022-12-13T15:32:39.183Z,-1.31
2022-12-13T15:35:10.728Z,-1.41
2022-12-13T15:37:42.243Z,-1.44
2022-12-13T15:40:14.314Z,-1.47
2022-12-13T15:42:47.837Z,-1.53
2022-12-13T15:45:19.385Z,-1.60
2022-12-13T15:47:51.215Z,-1.66
2022-12-13T15:50:22.713Z,-1.79
2022-12-13T15:52:54.225Z,-1.83
2022-12-13T15:55:28.567Z,-1.88
2022-12-13T15:58:00.606Z,-1.91
2022-12-13T16:00:32.414Z,-1.98
2022-12-13T16:03:09.530Z,-2.03
2022-12-13T16:05:42.408Z,-2.07
2022-12-13T16:08:14.613Z,-2.11
2022-12-13T16:10:46.142Z,-2.16
2022-12-13T16:13:26.095Z,-2.18
2022-12-13T16:16:00.060Z,-2.23
2022-12-13T16:18:40.968Z,-2.28
2022-12-13T16:21:12.503Z,-2.35
2022-12-13T16:23:48.648Z,-2.38
2022-12-13T16:26:20.685Z,-2.42
2022-12-13T16:28:52.555Z,-2.47
2022-12-13T16:31:24.135Z,-2.54
2022-12-13T16:33:55.911Z,-2.54
2022-12-13T16:36:27.423Z,-2.59
2022-12-13T16:38:59.472Z,-2.64
2022-12-13T16:41:31.008Z,-2.67
2022-12-13T16:44:02.814Z,-2.69
2022-12-13T16:47:18.242Z,-2.70
2022-12-13T16:49:26.172Z,-2.75
2022-12-13T16:51:57.691Z,-2.78
2022-12-13T16:54:29.597Z,-2.87
2022-12-13T16:57:01.103Z,-2.90
2022-12-13T16:59:32.619Z,-2.94
2022-12-13T17:02:04.686Z,-3.01
2022-12-13T17:04:36.336Z,-3.06
2022-12-13T17:07:08.261Z,-3.09
2022-12-13T17:09:41.379Z,-3.14
2022-12-13T17:12:13.319Z,-3.15
2022-12-13T17:14:44.837Z,-3.21
2022-12-13T17:17:17.936Z,-3.19
2022-12-13T17:19:49.610Z,-3.23
2022-12-13T17:22:21.709Z,-3.25
2022-12-13T17:24:53.326Z,-3.30
2022-12-13T17:27:25.526Z,-3.34
2022-12-13T17:29:57.071Z,-3.37
2022-12-13T17:32:30.040Z,-3.41
2022-12-13T17:35:02.960Z,-3.44
2022-12-13T17:37:34.890Z,-3.47
2022-12-13T17:40:09.535Z,-3.50
2022-12-13T17:42:41.498Z,-3.56
2022-12-13T17:45:12.993Z,-3.58
2022-12-13T17:47:44.864Z,-3.65
2022-12-13T17:50:16.383Z,-3.68
2022-12-13T17:52:47.968Z,-3.72
2022-12-13T17:55:19.508Z,-3.76
2022-12-13T17:57:51.068Z,-3.80
2022-12-13T18:00:25.446Z,-3.88
2022-12-13T18:02:57.413Z,-3.89
2022-12-13T18:05:31.251Z,-3.90
2022-12-13T18:08:02.831Z,-3.95
2022-12-13T18:10:34.332Z,-3.97
2022-12-13T18:13:05.914Z,-4.03
2022-12-13T18:15:37.517Z,-4.08
2022-12-13T18:18:11.634Z,-4.08
2022-12-13T18:20:44.382Z,-4.14
2022-12-13T18:23:16.214Z,-4.51
2022-12-13T18:25:50.976Z,-4.20
2022-12-13T18:28:22.511Z,-4.26
2022-12-13T18:30:54.165Z,-4.29
2022-12-13T18:33:27.718Z,-4.30
2022-12-13T18:35:59.556Z,-4.34
2022-12-13T18:38:36.600Z,-4.36
2022-12-13T18:41:08.425Z,-4.41
2022-12-13T18:43:40.497Z,-4.44
2022-12-13T18:46:12.225Z,-4.46
2022-12-13T18:48:43.763Z,-4.49
2022-12-13T18:51:15.327Z,-4.55
2022-12-13T18:53:47.153Z,-4.56
2022-12-13T18:56:19.499Z,-4.59
2022-12-13T18:58:51.817Z,-4.60
2022-12-13T19:01:25.355Z,-4.59
2022-12-13T19:03:57.362Z,-4.67
2022-12-13T19:06:28.941Z,-4.73
2022-12-13T19:09:00.549Z,-4.76
2022-12-13T19:11:33.063Z,-4.77
2022-12-13T19:14:04.581Z,-4.83
2022-12-13T19:16:36.126Z,-4.81
2022-12-13T19:19:08.130Z,-4.86
2022-12-13T19:21:39.631Z,-4.87
2022-12-13T19:24:11.449Z,-4.94
2022-12-13T19:26:42.974Z,-4.98
2022-12-13T19:29:16.280Z,-4.97
2022-12-13T19:31:47.872Z,-6.25
2022-12-13T19:34:19.862Z,-4.99
2022-12-13T19:36:51.422Z,-5.05
2022-12-13T19:39:22.943Z,-5.10
2022-12-13T19:41:54.438Z,-5.16
2022-12-13T19:44:26.309Z,-5.23
2022-12-13T19:46:59.181Z,-5.28
2022-12-13T19:49:31.179Z,-5.29
2022-12-13T19:52:02.863Z,-5.29
2022-12-13T19:54:34.435Z,-5.31
2022-12-13T19:57:07.481Z,-5.34
2022-12-13T19:59:39.596Z,-5.35
2022-12-13T20:02:11.124Z,-5.35
2022-12-13T20:04:44.600Z,-5.41
2022-12-13T20:07:16.135Z,-5.44
2022-12-13T20:09:47.675Z,-5.47
2022-12-13T20:12:19.241Z,-5.51
2022-12-13T20:14:50.769Z,-5.51
2022-12-13T20:17:22.254Z,-5.53
2022-12-13T20:19:53.827Z,-5.54
2022-12-13T20:22:25.342Z,-5.55
2022-12-13T20:24:56.877Z,-5.58
2022-12-13T20:27:28.413Z,-5.63
2022-12-13T20:30:00.238Z,-5.64
2022-12-13T20:32:31.724Z,-5.67
2022-12-13T20:35:03.316Z,-5.69
2022-12-13T20:37:34.857Z,-5.74
2022-12-13T20:40:06.706Z,-5.75
2022-12-13T20:42:38.852Z,-5.80
2022-12-13T20:45:10.716Z,-5.78
2022-12-13T20:47:42.357Z,-5.82
2022-12-13T20:50:14.330Z,-5.83
2022-12-13T20:52:50.700Z,-5.76
2022-12-13T20:55:22.519Z,-5.82
2022-12-13T20:57:54.028Z,-5.82
2022-12-13T21:00:26.290Z,-5.83
2022-12-13T21:02:57.854Z,-5.85
2022-12-13T21:05:29.712Z,-5.85
2022-12-13T21:08:20.493Z,-5.84
2022-12-13T21:10:52.020Z,-5.84
2022-12-13T21:13:23.759Z,-5.86
2022-12-13T21:15:55.435Z,-5.83
2022-12-13T21:18:27.407Z,-5.86
2022-12-13T21:20:58.990Z,-5.88
2022-12-13T21:23:30.841Z,-5.90
2022-12-13T21:26:02.342Z,-5.92
2022-12-13T21:28:34.226Z,-5.92
2022-12-13T21:31:06.692Z,-5.92
2022-12-13T21:33:38.370Z,-5.93
2022-12-13T21:36:09.934Z,-5.91
2022-12-13T21:38:41.790Z,-5.93
2022-12-13T21:41:13.290Z,-5.95
2022-12-13T21:43:45.118Z,-5.99
2022-12-13T21:46:20.080Z,-5.96
2022-12-13T21:48:51.967Z,-5.99
2022-12-13T21:51:23.454Z,-6.00
2022-12-13T21:53:55.365Z,-6.01
2022-12-13T21:56:45.706Z,-6.02
2022-12-13T21:59:17.580Z,-6.01
2022-12-13T22:02:07.900Z,-6.03
2022-12-13T22:04:39.762Z,-6.04
2022-12-13T22:07:11.341Z,-6.04
2022-12-13T22:09:43.193Z,-6.03
2022-12-13T22:12:14.778Z,-6.06
2022-12-13T22:14:46.658Z,-6.06
2022-12-13T22:17:18.183Z,-6.05
2022-12-13T22:19:50.070Z,-6.06
2022-12-13T22:22:21.601Z,-6.08
2022-12-13T22:24:54.068Z,-6.10
2022-12-13T22:27:26.036Z,-6.07
2022-12-13T22:29:58.174Z,-6.09
2022-12-13T22:32:29.860Z,-6.08
2022-12-13T22:35:01.709Z,-6.08
2022-12-13T22:37:33.296Z,-6.08
2022-12-13T22:40:05.337Z,-6.09
2022-12-13T22:42:36.821Z,-6.10
2022-12-13T22:45:08.790Z,-6.09
2022-12-13T22:47:40.286Z,-6.11
2022-12-13T22:50:12.130Z,-6.10
2022-12-13T22:52:43.627Z,-6.07
2022-12-13T22:55:15.573Z,-6.08
2022-12-13T22:57:48.511Z,-6.13
2022-12-13T23:00:20.709Z,-6.15
2022-12-13T23:02:52.293Z,-6.11
2022-12-13T23:05:24.134Z,-6.16
2022-12-13T23:07:55.662Z,-6.16
2022-12-13T23:10:46.426Z,-6.16
2022-12-13T23:13:17.922Z,-6.15
2022-12-13T23:15:49.872Z,-6.15
2022-12-13T23:18:21.376Z,-6.14
2022-12-13T23:20:53.240Z,-6.16
2022-12-13T23:23:24.761Z,-6.19
2022-12-13T23:25:56.451Z,-6.18
2022-12-13T23:28:28.438Z,-6.18
2022-12-13T23:31:00.814Z,-6.27
2022-12-13T23:33:32.540Z,-6.27
2022-12-13T23:36:09.469Z,-6.31
2022-12-13T23:38:41.404Z,-6.34
2022-12-13T23:41:13.349Z,-6.34
2022-12-13T23:43:44.915Z,-6.34
2022-12-13T23:46:20.796Z,-6.35
2022-12-13T23:48:52.307Z,-6.39
2022-12-13T23:51:24.119Z,-6.40
2022-12-13T23:53:55.683Z,-6.43
2022-12-13T23:56:27.193Z,-6.42
2022-12-13T23:58:59.037Z,-6.46
